Time;durP1;ratioP1;P1;durP2;ratioP2;P2;SDS_P1;SDS_P2;PMS_P1;PMS_P2;Temp;Humidity;BMP_temperature;BMP_pressure;BME280_temperature;BME280_humidity;BME280_pressure;Samples;Min_cycle;Max_cycle;Signal;HPM_P1;HPM_P2
2023/04/29 00:00:26;;;;;;;39.70;24.10;;;;;;;;;;4928793;29;20462;-91
2023/04/29 00:02:52;;;;;;;48.15;32.20;;;;;;;;;;4951450;28;20418;-91
2023/04/29 00:05:18;;;;;;;45.27;27.33;;;;;;;;;;4937831;29;20206;-91
2023/04/29 00:07:44;;;;;;;48.00;30.00;;;;;;;;;;4931526;28;20856;-92
2023/04/29 00:10:13;;;;;;;49.40;28.23;;;;;;;;;;4922022;28;20458;-91
2023/04/29 00:12:40;;;;;;;43.20;26.27;;;;;;;;;;4925871;29;20426;-92
2023/04/29 00:15:07;;;;;;;44.93;25.70;;;;;;;;;;4938960;28;20470;-91
2023/04/29 00:17:33;;;;;;;40.87;26.10;;;;;;;;;;4950008;28;21012;-91
2023/04/29 00:19:59;;;;;;;47.80;27.17;;;;;;;;;;4928841;29;20446;-91
2023/04/29 00:22:26;;;;;;;39.87;26.17;;;;;;;;;;4941953;29;20497;-91
2023/04/29 00:24:52;;;;;;;41.80;26.60;;;;;;;;;;4944771;28;20450;-91
2023/04/29 00:27:18;;;;;;;39.80;22.53;;;;;;;;;;4921790;29;20558;-91
2023/04/29 00:29:44;;;;;;;46.63;28.47;;;;;;;;;;4930337;29;21062;-92
2023/04/29 00:32:11;;;;;;;39.60;24.70;;;;;;;;;;4928976;29;21001;-92
2023/04/29 00:34:37;;;;;;;41.53;26.37;;;;;;;;;;4927534;29;20434;-90
2023/04/29 00:37:03;;;;;;;38.57;26.60;;;;;;;;;;4928284;29;20446;-90
2023/04/29 00:39:29;;;;;;;43.37;27.17;;;;;;;;;;4928601;29;20442;-90
2023/04/29 00:41:55;;;;;;;48.67;28.23;;;;;;;;;;4929516;29;20863;-91
2023/04/29 00:44:21;;;;;;;47.77;27.33;;;;;;;;;;4933348;28;20534;-90
2023/04/29 00:46:47;;;;;;;46.67;26.43;;;;;;;;;;4923550;29;20582;-90
2023/04/29 00:49:13;;;;;;;47.43;26.80;;;;;;;;;;4928048;29;20771;-92
2023/04/29 00:51:40;;;;;;;54.33;26.40;;;;;;;;;;4947165;29;20469;-91
2023/04/29 00:54:07;;;;;;;48.50;30.85;;;;;;;;;;4933298;29;20421;-90
2023/04/29 00:56:35;;;;;;;52.83;28.93;;;;;;;;;;4928615;29;20198;-91
2023/04/29 00:59:14;;;;;;;56.90;30.17;;;;;;;;;;4925650;29;20446;-91
2023/04/29 01:01:43;;;;;;;55.10;31.53;;;;;;;;;;4934625;29;20477;-92
2023/04/29 01:04:09;;;;;;;56.83;31.20;;;;;;;;;;4954662;29;20865;-91
2023/04/29 01:07:01;;;;;;;56.83;29.53;;;;;;;;;;4938932;29;20465;-91
2023/04/29 01:09:34;;;;;;;46.43;25.93;;;;;;;;;;4921280;28;20530;-93
2023/04/29 01:12:05;;;;;;;56.83;29.70;;;;;;;;;;4945857;29;20500;-90
2023/04/29 01:14:33;;;;;;;60.27;29.63;;;;;;;;;;4931469;28;20554;-91
2023/04/29 01:17:01;;;;;;;62.47;31.00;;;;;;;;;;4940833;29;20490;-93
2023/04/29 01:19:27;;;;;;;55.50;27.50;;;;;;;;;;4932042;29;20448;-92
2023/04/29 01:21:53;;;;;;;56.00;30.80;;;;;;;;;;4952332;29;20453;-92
2023/04/29 01:24:19;;;;;;;57.50;30.33;;;;;;;;;;4933419;28;21132;-92
2023/04/29 01:26:48;;;;;;;57.77;28.80;;;;;;;;;;4935960;29;20410;-92
2023/04/29 01:29:21;;;;;;;59.00;30.93;;;;;;;;;;4926867;29;20434;-92
2023/04/29 01:32:06;;;;;;;62.00;31.63;;;;;;;;;;4949841;29;20426;-92
2023/04/29 01:34:44;;;;;;;51.57;30.33;;;;;;;;;;4929925;28;20439;-92
2023/04/29 01:37:17;;;;;;;58.90;32.40;;;;;;;;;;4929947;29;20542;-92
2023/04/29 01:39:46;;;;;;;64.17;30.30;;;;;;;;;;4919170;28;20442;-92
2023/04/29 01:42:12;;;;;;;60.50;30.00;;;;;;;;;;4943989;29;20454;-93
2023/04/29 01:44:39;;;;;;;60.13;32.80;;;;;;;;;;4930996;28;21208;-92
2023/04/29 01:47:05;;;;;;;48.57;28.10;;;;;;;;;;4950104;29;20717;-92
2023/04/29 01:49:35;;;;;;;59.43;31.73;;;;;;;;;;4932906;28;20442;-93
2023/04/29 01:52:01;;;;;;;56.93;29.90;;;;;;;;;;4919891;29;21007;-92
2023/04/29 01:54:27;;;;;;;58.22;34.83;;;;;;;;;;4929154;28;20398;-92
2023/04/29 01:56:53;;;;;;;51.57;27.87;;;;;;;;;;4918942;29;20171;-92
2023/04/29 01:59:20;;;;;;;56.53;28.90;;;;;;;;;;4922674;28;20951;-92
2023/04/29 02:01:46;;;;;;;58.70;30.80;;;;;;;;;;4944346;29;20522;-91
2023/04/29 02:04:12;;;;;;;69.67;35.43;;;;;;;;;;4921536;29;20447;-92
2023/04/29 02:06:38;;;;;;;76.77;33.43;;;;;;;;;;4926542;29;20557;-93
2023/04/29 02:09:04;;;;;;;75.80;34.77;;;;;;;;;;4929745;29;20438;-91
2023/04/29 02:11:30;;;;;;;88.60;41.72;;;;;;;;;;4947390;28;20457;-92
2023/04/29 02:13:56;;;;;;;72.47;34.53;;;;;;;;;;4923304;29;20206;-91
2023/04/29 02:16:22;;;;;;;71.63;33.07;;;;;;;;;;4926165;29;20447;-92
2023/04/29 02:18:48;;;;;;;87.73;34.80;;;;;;;;;;4932889;28;20490;-91
2023/04/29 02:21:22;;;;;;;100.47;45.80;;;;;;;;;;4923096;29;20844;-92
2023/04/29 02:23:49;;;;;;;97.50;38.40;;;;;;;;;;4928953;29;20468;-92
2023/04/29 02:26:15;;;;;;;105.13;46.65;;;;;;;;;;4945583;28;20504;-91
2023/04/29 02:28:41;;;;;;;81.23;33.87;;;;;;;;;;4933009;29;20274;-91
2023/04/29 02:31:07;;;;;;;84.30;37.57;;;;;;;;;;4930560;29;20935;-92
2023/04/29 02:33:33;;;;;;;88.20;40.87;;;;;;;;;;4947427;29;20442;-92
2023/04/29 02:35:59;;;;;;;96.13;41.50;;;;;;;;;;4946804;28;20450;-93
2023/04/29 02:38:25;;;;;;;96.17;37.27;;;;;;;;;;4933804;29;20504;-92
2023/04/29 02:40:51;;;;;;;89.83;34.97;;;;;;;;;;4930650;29;20538;-92
2023/04/29 02:43:17;;;;;;;81.50;37.50;;;;;;;;;;4940014;29;20442;-92
2023/04/29 02:45:43;;;;;;;79.13;37.30;;;;;;;;;;4937076;29;20830;-91
2023/04/29 02:48:12;;;;;;;87.43;39.90;;;;;;;;;;4929548;29;20807;-92
2023/04/29 02:50:38;;;;;;;77.70;33.87;;;;;;;;;;4948421;28;20445;-92
2023/04/29 02:53:04;;;;;;;70.77;32.87;;;;;;;;;;4932672;29;20430;-92
2023/04/29 02:55:30;;;;;;;61.07;31.07;;;;;;;;;;4921627;28;20647;-92
2023/04/29 02:57:56;;;;;;;68.60;33.53;;;;;;;;;;4927872;29;20458;-92
2023/04/29 03:00:23;;;;;;;66.77;33.37;;;;;;;;;;4935915;29;20462;-90
2023/04/29 03:02:49;;;;;;;59.60;32.50;;;;;;;;;;4961486;28;20464;-93
2023/04/29 03:05:15;;;;;;;59.80;30.10;;;;;;;;;;4937123;29;21013;-92
2023/04/29 03:07:41;;;;;;;56.60;28.37;;;;;;;;;;4943479;28;20512;-91
2023/04/29 03:10:07;;;;;;;62.27;29.43;;;;;;;;;;4926674;29;20470;-93
2023/04/29 03:12:34;;;;;;;50.07;29.20;;;;;;;;;;4950879;29;20501;-92
2023/04/29 03:15:00;;;;;;;59.75;33.17;;;;;;;;;;4932597;29;20849;-90
2023/04/29 03:17:26;;;;;;;51.57;29.17;;;;;;;;;;4947557;29;20178;-91
2023/04/29 03:19:53;;;;;;;55.27;27.10;;;;;;;;;;4973008;23;21280;-79
2023/04/29 03:22:19;;;;;;;49.40;26.73;;;;;;;;;;4953287;28;20592;-79
2023/04/29 03:24:45;;;;;;;48.20;25.50;;;;;;;;;;4947860;28;20445;-78
2023/04/29 03:27:11;;;;;;;60.30;28.20;;;;;;;;;;4950610;28;20941;-80
2023/04/29 03:29:37;;;;;;;47.50;26.33;;;;;;;;;;4949067;28;20454;-79
2023/04/29 03:32:04;;;;;;;45.40;25.60;;;;;;;;;;4937856;29;20524;-79
2023/04/29 03:34:30;;;;;;;44.27;24.07;;;;;;;;;;4943789;28;20585;-80
2023/04/29 03:36:56;;;;;;;53.95;30.67;;;;;;;;;;4940829;29;20435;-79
2023/04/29 03:39:22;;;;;;;50.37;25.17;;;;;;;;;;4929253;29;20249;-79
2023/04/29 03:41:48;;;;;;;41.30;24.30;;;;;;;;;;4928643;29;20459;-78
2023/04/29 03:44:14;;;;;;;43.70;23.30;;;;;;;;;;4927919;29;20450;-80
2023/04/29 03:46:40;;;;;;;51.67;26.53;;;;;;;;;;4940061;29;20449;-78
2023/04/29 03:49:06;;;;;;;43.37;26.50;;;;;;;;;;4930817;29;20442;-79
2023/04/29 03:51:32;;;;;;;42.43;24.50;;;;;;;;;;4929504;29;20420;-79
2023/04/29 03:53:59;;;;;;;44.90;24.60;;;;;;;;;;4914252;29;20442;-80
2023/04/29 03:56:25;;;;;;;38.40;23.40;;;;;;;;;;4922892;29;20486;-80
2023/04/29 03:58:51;;;;;;;37.17;23.77;;;;;;;;;;4932155;29;20965;-80
2023/04/29 04:01:18;;;;;;;37.93;22.53;;;;;;;;;;4941135;29;20564;-79
2023/04/29 04:03:44;;;;;;;42.20;23.17;;;;;;;;;;4926901;29;21009;-81
2023/04/29 04:06:10;;;;;;;36.97;22.70;;;;;;;;;;4930546;29;20439;-79
2023/04/29 04:08:36;;;;;;;41.37;23.20;;;;;;;;;;4925480;29;20432;-79
2023/04/29 04:11:03;;;;;;;46.07;24.67;;;;;;;;;;4930548;29;20847;-79
2023/04/29 04:13:29;;;;;;;41.53;24.57;;;;;;;;;;4926488;29;20440;-80
2023/04/29 04:15:55;;;;;;;41.63;24.10;;;;;;;;;;4922402;29;20797;-80
2023/04/29 04:18:21;;;;;;;42.60;22.90;;;;;;;;;;4928011;29;20439;-79
2023/04/29 04:20:47;;;;;;;42.97;24.00;;;;;;;;;;4922669;29;20560;-79
2023/04/29 04:23:13;;;;;;;44.50;23.87;;;;;;;;;;4928486;29;20892;-79
2023/04/29 04:25:48;;;;;;;43.67;23.27;;;;;;;;;;4922925;29;20447;-78
2023/04/29 04:28:14;;;;;;;42.10;25.03;;;;;;;;;;4942636;29;20431;-79
2023/04/29 04:30:41;;;;;;;41.53;23.97;;;;;;;;;;4943739;29;20442;-79
2023/04/29 04:33:08;;;;;;;43.47;28.90;;;;;;;;;;4940272;29;20418;-78
2023/04/29 04:35:34;;;;;;;40.97;23.77;;;;;;;;;;4929319;29;20262;-79
2023/04/29 04:38:00;;;;;;;41.83;24.30;;;;;;;;;;4920526;29;20846;-78
2023/04/29 04:40:26;;;;;;;38.20;19.87;;;;;;;;;;4926523;29;20447;-80
2023/04/29 04:42:52;;;;;;;37.77;24.67;;;;;;;;;;4925938;29;20908;-80
2023/04/29 04:45:18;;;;;;;38.40;22.00;;;;;;;;;;4928273;29;20710;-79
2023/04/29 04:47:44;;;;;;;33.47;19.60;;;;;;;;;;4935447;29;20477;-79
2023/04/29 04:50:10;;;;;;;37.47;20.80;;;;;;;;;;4928927;29;20451;-80
2023/04/29 04:52:36;;;;;;;32.77;21.33;;;;;;;;;;4930002;29;20437;-80
2023/04/29 04:55:03;;;;;;;37.37;22.47;;;;;;;;;;4939024;29;20438;-78
2023/04/29 04:57:29;;;;;;;32.60;20.30;;;;;;;;;;4932829;29;20439;-79
2023/04/29 04:59:55;;;;;;;32.77;20.03;;;;;;;;;;4912570;29;20466;-81
2023/04/29 05:02:21;;;;;;;31.77;19.37;;;;;;;;;;4936278;29;20859;-80
2023/04/29 05:04:47;;;;;;;31.67;20.23;;;;;;;;;;4944479;29;20474;-79
2023/04/29 05:07:13;;;;;;;35.23;21.70;;;;;;;;;;4934258;29;20439;-80
2023/04/29 05:09:39;;;;;;;35.03;21.50;;;;;;;;;;4945594;29;20422;-81
2023/04/29 05:12:05;;;;;;;33.03;19.77;;;;;;;;;;4940922;29;20435;-79
2023/04/29 05:14:31;;;;;;;37.87;21.90;;;;;;;;;;4944711;29;20971;-80
2023/04/29 05:17:00;;;;;;;33.23;19.00;;;;;;;;;;4953144;29;20434;-81
2023/04/29 05:19:26;;;;;;;35.33;20.20;;;;;;;;;;4954865;29;20463;-81
2023/04/29 05:21:52;;;;;;;34.53;22.53;;;;;;;;;;4943726;29;20478;-81
2023/04/29 05:24:18;;;;;;;33.27;22.13;;;;;;;;;;4938099;29;20518;-81
2023/04/29 05:26:44;;;;;;;33.70;21.23;;;;;;;;;;4939582;29;20446;-81
2023/04/29 05:29:11;;;;;;;28.17;19.47;;;;;;;;;;4929294;29;20447;-82
2023/04/29 05:31:37;;;;;;;37.67;24.65;;;;;;;;;;4929489;29;20437;-82
2023/04/29 05:34:04;;;;;;;30.00;19.90;;;;;;;;;;4932329;29;20191;-81
2023/04/29 05:36:30;;;;;;;32.57;18.90;;;;;;;;;;4937354;29;20518;-80
2023/04/29 05:38:56;;;;;;;34.23;21.00;;;;;;;;;;4911186;29;21045;-80
2023/04/29 05:41:23;;;;;;;26.67;19.23;;;;;;;;;;4931793;29;20459;-80
2023/04/29 05:43:49;;;;;;;31.27;21.30;;;;;;;;;;4928260;29;20533;-80
2023/04/29 05:46:17;;;;;;;33.40;20.90;;;;;;;;;;4934646;29;20563;-81
2023/04/29 05:48:43;;;;;;;28.93;18.93;;;;;;;;;;4928550;29;20458;-80
2023/04/29 05:51:09;;;;;;;32.07;20.87;;;;;;;;;;4933746;29;20431;-81
2023/04/29 05:53:37;;;;;;;29.50;18.80;;;;;;;;;;4928413;29;20503;-80
2023/04/29 05:56:06;;;;;;;27.63;19.20;;;;;;;;;;4943170;29;20434;-82
2023/04/29 05:58:33;;;;;;;25.90;19.67;;;;;;;;;;4943461;29;20442;-80
2023/04/29 06:00:59;;;;;;;27.30;18.67;;;;;;;;;;4946556;29;20439;-82
2023/04/29 06:03:25;;;;;;;27.53;19.70;;;;;;;;;;4947343;29;20753;-81
2023/04/29 06:05:51;;;;;;;31.13;20.83;;;;;;;;;;4931169;29;20503;-80
2023/04/29 06:08:17;;;;;;;28.47;21.00;;;;;;;;;;4930431;29;20510;-81
2023/04/29 06:10:43;;;;;;;28.60;18.97;;;;;;;;;;4938723;29;20442;-82
2023/04/29 06:13:09;;;;;;;30.47;19.80;;;;;;;;;;4925947;29;20769;-81
2023/04/29 06:15:35;;;;;;;31.00;20.97;;;;;;;;;;4927863;29;20439;-82
2023/04/29 06:18:01;;;;;;;33.87;20.43;;;;;;;;;;4909748;29;20453;-80
2023/04/29 06:20:27;;;;;;;30.47;20.13;;;;;;;;;;4934443;29;20533;-80
2023/04/29 06:22:53;;;;;;;27.93;21.07;;;;;;;;;;4930520;29;20478;-80
2023/04/29 06:25:19;;;;;;;28.93;20.00;;;;;;;;;;4928697;29;20421;-80
2023/04/29 06:27:46;;;;;;;32.22;23.23;;;;;;;;;;4924452;29;20391;-80
2023/04/29 06:30:12;;;;;;;32.88;23.58;;;;;;;;;;4934943;29;20399;-81
2023/04/29 06:32:41;;;;;;;31.73;24.65;;;;;;;;;;4926470;29;20417;-79
2023/04/29 06:35:07;;;;;;;32.03;20.37;;;;;;;;;;4934861;29;20180;-78
2023/04/29 06:37:33;;;;;;;26.10;17.67;;;;;;;;;;4943209;29;20512;-79
2023/04/29 06:39:59;;;;;;;31.47;18.87;;;;;;;;;;4932011;29;20926;-79
2023/04/29 06:42:25;;;;;;;28.90;20.37;;;;;;;;;;4928240;29;20673;-79
2023/04/29 06:44:51;;;;;;;35.30;20.70;;;;;;;;;;4922486;29;20893;-80
2023/04/29 06:47:17;;;;;;;24.03;19.00;;;;;;;;;;4926318;29;20498;-80
2023/04/29 06:49:43;;;;;;;30.10;21.33;;;;;;;;;;4908254;29;20446;-79
2023/04/29 06:52:09;;;;;;;32.80;21.80;;;;;;;;;;4927664;29;20486;-81
2023/04/29 06:54:35;;;;;;;30.70;21.83;;;;;;;;;;4926655;29;20438;-80
2023/04/29 06:57:01;;;;;;;33.13;24.95;;;;;;;;;;4926083;29;20422;-80
2023/04/29 06:59:27;;;;;;;26.97;20.27;;;;;;;;;;4924948;29;20199;-80
2023/04/29 07:01:53;;;;;;;27.73;19.23;;;;;;;;;;4924448;29;20455;-78
2023/04/29 07:04:19;;;;;;;27.60;21.27;;;;;;;;;;4923427;29;20451;-78
2023/04/29 07:06:45;;;;;;;28.77;20.17;;;;;;;;;;4923576;29;20471;-79
2023/04/29 07:09:15;;;;;;;29.07;20.30;;;;;;;;;;4917879;29;20873;-77
2023/04/29 07:11:41;;;;;;;30.57;20.40;;;;;;;;;;4921689;29;20942;-76
2023/04/29 07:14:07;;;;;;;28.90;20.10;;;;;;;;;;4911994;29;20565;-79
2023/04/29 07:16:33;;;;;;;30.13;21.70;;;;;;;;;;4924134;29;20461;-78
2023/04/29 07:19:00;;;;;;;24.23;18.90;;;;;;;;;;4903821;29;20444;-79
2023/04/29 07:21:26;;;;;;;25.37;20.57;;;;;;;;;;4920059;29;20487;-80
2023/04/29 07:23:54;;;;;;;26.70;20.00;;;;;;;;;;4920737;29;20474;-79
2023/04/29 07:26:20;;;;;;;20.87;17.10;;;;;;;;;;4918830;29;20955;-79
2023/04/29 07:28:48;;;;;;;23.70;18.90;;;;;;;;;;4918601;29;20443;-78
2023/04/29 07:31:14;;;;;;;23.53;18.13;;;;;;;;;;4922612;29;20938;-78
2023/04/29 07:33:40;;;;;;;23.27;18.37;;;;;;;;;;4923667;29;20539;-79
2023/04/29 07:36:06;;;;;;;27.67;17.67;;;;;;;;;;4916691;29;20948;-80
2023/04/29 07:38:33;;;;;;;24.63;18.40;;;;;;;;;;4924453;29;20982;-78
2023/04/29 07:40:59;;;;;;;22.63;18.87;;;;;;;;;;4917164;29;21003;-79
2023/04/29 07:43:25;;;;;;;27.23;19.17;;;;;;;;;;4926973;29;20514;-81
2023/04/29 07:45:51;;;;;;;29.90;18.53;;;;;;;;;;4920309;29;20444;-80
2023/04/29 07:48:17;;;;;;;25.20;17.23;;;;;;;;;;4918735;29;20470;-79
2023/04/29 07:50:43;;;;;;;26.50;18.93;;;;;;;;;;4931509;29;20853;-81
2023/04/29 07:53:09;;;;;;;32.60;19.73;;;;;;;;;;4930940;29;20455;-80
2023/04/29 07:55:36;;;;;;;26.60;19.77;;;;;;;;;;4931805;29;20490;-81
2023/04/29 07:58:02;;;;;;;26.20;19.00;;;;;;;;;;4924157;29;20443;-83
2023/04/29 08:00:28;;;;;;;28.03;21.40;;;;;;;;;;4927641;29;20444;-80
2023/04/29 08:02:55;;;;;;;34.73;22.60;;;;;;;;;;4954767;29;20481;-80
2023/04/29 08:05:22;;;;;;;37.80;23.60;;;;;;;;;;4945461;29;20533;-82
2023/04/29 08:07:48;;;;;;;30.90;20.00;;;;;;;;;;4938083;29;20453;-79
2023/04/29 08:10:14;;;;;;;32.97;23.80;;;;;;;;;;4923724;29;20990;-79
2023/04/29 08:12:40;;;;;;;35.10;23.43;;;;;;;;;;4927562;29;20453;-79
2023/04/29 08:15:07;;;;;;;34.57;22.90;;;;;;;;;;4924408;29;20462;-78
2023/04/29 08:17:33;;;;;;;33.07;23.90;;;;;;;;;;4919890;29;20446;-78
2023/04/29 08:19:59;;;;;;;33.80;22.63;;;;;;;;;;4925357;29;20475;-78
2023/04/29 08:22:25;;;;;;;35.33;23.60;;;;;;;;;;4919191;29;20538;-79
2023/04/29 08:24:51;;;;;;;32.20;23.20;;;;;;;;;;4919824;29;20416;-79
2023/04/29 08:27:17;;;;;;;34.93;24.83;;;;;;;;;;4925406;29;20494;-77
2023/04/29 08:29:43;;;;;;;39.60;24.70;;;;;;;;;;4918907;29;20428;-78
2023/04/29 08:32:09;;;;;;;40.03;26.00;;;;;;;;;;4926714;29;20466;-75
2023/04/29 08:34:35;;;;;;;39.13;27.00;;;;;;;;;;4913540;29;20899;-77
2023/04/29 08:37:01;;;;;;;43.53;26.27;;;;;;;;;;4908008;29;20507;-78
2023/04/29 08:39:29;;;;;;;38.80;26.40;;;;;;;;;;4935251;29;20448;-79
2023/04/29 08:41:56;;;;;;;38.30;24.43;;;;;;;;;;4939343;29;20463;-79
2023/04/29 08:44:22;;;;;;;36.20;23.80;;;;;;;;;;4928838;29;20428;-79
2023/04/29 08:46:49;;;;;;;46.97;26.60;;;;;;;;;;4908468;29;20690;-78
2023/04/29 08:49:15;;;;;;;42.20;24.20;;;;;;;;;;4918089;29;20807;-78
2023/04/29 08:51:41;;;;;;;41.73;24.97;;;;;;;;;;4924353;29;20497;-78
2023/04/29 08:54:07;;;;;;;45.83;27.80;;;;;;;;;;4919293;29;20971;-78
2023/04/29 08:56:33;;;;;;;40.13;27.50;;;;;;;;;;4918359;29;20479;-80
2023/04/29 08:59:01;;;;;;;43.10;26.53;;;;;;;;;;4918569;29;20432;-78
2023/04/29 09:01:27;;;;;;;48.57;26.93;;;;;;;;;;4929067;29;20470;-79
2023/04/29 09:03:56;;;;;;;39.37;24.93;;;;;;;;;;4932065;29;20477;-78
2023/04/29 09:06:22;;;;;;;38.23;25.60;;;;;;;;;;4927783;29;20923;-79
2023/04/29 09:08:48;;;;;;;53.83;27.80;;;;;;;;;;4915008;29;20479;-79
2023/04/29 09:11:15;;;;;;;36.63;26.23;;;;;;;;;;4931660;29;20437;-78
2023/04/29 09:13:41;;;;;;;39.17;24.83;;;;;;;;;;4921350;29;20824;-80
2023/04/29 09:16:10;;;;;;;42.60;27.47;;;;;;;;;;4917645;29;20448;-79
2023/04/29 09:18:44;;;;;;;45.43;27.50;;;;;;;;;;4902776;29;20510;-80
2023/04/29 09:21:20;;;;;;;47.30;27.83;;;;;;;;;;4921158;29;20988;-79
2023/04/29 09:23:47;;;;;;;44.93;28.40;;;;;;;;;;4917733;29;20481;-79
2023/04/29 09:26:14;;;;;;;53.90;28.83;;;;;;;;;;4923930;29;21240;-79
2023/04/29 09:28:42;;;;;;;47.73;29.93;;;;;;;;;;4920197;29;20805;-80
2023/04/29 09:31:09;;;;;;;47.93;31.30;;;;;;;;;;4928655;29;20563;-80
2023/04/29 09:33:51;;;;;;;52.30;29.80;;;;;;;;;;4916551;29;20478;-78
2023/04/29 09:36:36;;;;;;;46.07;29.43;;;;;;;;;;4921419;29;20432;-79
2023/04/29 09:39:02;;;;;;;51.87;32.33;;;;;;;;;;4926022;29;20446;-79
2023/04/29 09:41:28;;;;;;;53.60;34.23;;;;;;;;;;4919844;29;21076;-74
2023/04/29 09:44:06;;;;;;;53.07;31.93;;;;;;;;;;4921398;29;20522;-74
2023/04/29 09:46:33;;;;;;;48.27;30.57;;;;;;;;;;4917870;29;20574;-74
2023/04/29 09:49:00;;;;;;;52.30;34.87;;;;;;;;;;4927737;29;20522;-78
2023/04/29 09:51:26;;;;;;;50.60;32.70;;;;;;;;;;4924940;29;20912;-79
2023/04/29 09:53:52;;;;;;;52.30;34.50;;;;;;;;;;4922047;29;20863;-80
2023/04/29 09:56:18;;;;;;;49.80;35.30;;;;;;;;;;4919825;29;20466;-79
2023/04/29 09:58:44;;;;;;;65.03;38.83;;;;;;;;;;4919061;29;20435;-79
2023/04/29 10:01:13;;;;;;;54.07;35.00;;;;;;;;;;4923983;29;20458;-81
2023/04/29 10:03:39;;;;;;;54.65;41.70;;;;;;;;;;4920938;29;20877;-76
2023/04/29 10:06:06;;;;;;;65.47;36.23;;;;;;;;;;4922766;29;20277;-75
2023/04/29 10:08:32;;;;;;;50.23;36.03;;;;;;;;;;4920144;29;20444;-77
2023/04/29 10:10:59;;;;;;;55.00;35.07;;;;;;;;;;4918180;29;20506;-81
2023/04/29 10:13:26;;;;;;;55.50;31.50;;;;;;;;;;4918038;29;20440;-77
2023/04/29 10:16:07;;;;;;;50.20;35.10;;;;;;;;;;4918510;29;20542;-76
2023/04/29 10:18:37;;;;;;;49.40;33.90;;;;;;;;;;4922228;29;21009;-76
2023/04/29 10:21:06;;;;;;;48.77;31.80;;;;;;;;;;4923903;29;20562;-77
2023/04/29 10:23:32;;;;;;;46.13;31.30;;;;;;;;;;4929140;29;20455;-85
2023/04/29 10:25:59;;;;;;;51.07;33.73;;;;;;;;;;4931045;29;20440;-84
2023/04/29 10:28:25;;;;;;;45.50;29.83;;;;;;;;;;4927956;29;20793;-78
2023/04/29 10:30:53;;;;;;;42.50;29.60;;;;;;;;;;4924987;29;20526;-78
2023/04/29 10:33:22;;;;;;;38.83;29.73;;;;;;;;;;4923433;29;20821;-81
2023/04/29 10:35:48;;;;;;;37.80;29.20;;;;;;;;;;4911428;29;20463;-77
2023/04/29 10:38:23;;;;;;;45.90;30.87;;;;;;;;;;4929759;29;20455;-78
2023/04/29 10:40:51;;;;;;;34.67;27.00;;;;;;;;;;4914768;29;21188;-77
2023/04/29 10:43:22;;;;;;;35.47;27.77;;;;;;;;;;4917048;29;20616;-79
2023/04/29 10:45:47;;;;;;;38.70;29.20;;;;;;;;;;4922690;29;20443;-81
2023/04/29 10:48:14;;;;;;;42.53;29.30;;;;;;;;;;4932120;29;20412;-82
2023/04/29 10:50:46;;;;;;;44.13;27.70;;;;;;;;;;4929712;29;20450;-78
2023/04/29 10:53:13;;;;;;;36.70;27.17;;;;;;;;;;4931418;29;20815;-81
2023/04/29 10:55:40;;;;;;;40.10;29.27;;;;;;;;;;4927711;29;20446;-81
2023/04/29 10:58:06;;;;;;;39.77;29.17;;;;;;;;;;4931066;29;20436;-81
2023/04/29 11:00:33;;;;;;;40.57;28.17;;;;;;;;;;4910028;29;20454;-82
2023/04/29 11:03:00;;;;;;;40.37;30.27;;;;;;;;;;4925224;29;20506;-81
2023/04/29 11:05:33;;;;;;;42.47;31.00;;;;;;;;;;4924713;29;20458;-80
2023/04/29 11:08:23;;;;;;;40.37;30.27;;;;;;;;;;4925493;29;20415;-80
2023/04/29 11:10:52;;;;;;;45.27;28.53;;;;;;;;;;4921713;29;20459;-80
2023/04/29 11:13:30;;;;;;;39.23;28.10;;;;;;;;;;4926823;29;20435;-80
2023/04/29 11:16:09;;;;;;;36.40;29.30;;;;;;;;;;4920315;29;20487;-80
2023/04/29 11:18:36;;;;;;;32.77;27.60;;;;;;;;;;4923856;29;20798;-79
2023/04/29 11:21:05;;;;;;;32.60;26.47;;;;;;;;;;4918860;29;20976;-80
2023/04/29 11:23:39;;;;;;;30.13;26.83;;;;;;;;;;4929034;29;20510;-80
2023/04/29 11:26:06;;;;;;;30.63;27.27;;;;;;;;;;4921008;29;20518;-80
2023/04/29 11:28:32;;;;;;;28.77;25.73;;;;;;;;;;4923782;29;21165;-79
2023/04/29 11:30:58;;;;;;;28.40;24.90;;;;;;;;;;4909491;29;20510;-80
2023/04/29 11:33:26;;;;;;;31.30;26.40;;;;;;;;;;4917265;29;20939;-78
2023/04/29 11:35:52;;;;;;;27.13;24.23;;;;;;;;;;4918322;29;20448;-80
2023/04/29 11:38:24;;;;;;;29.80;26.87;;;;;;;;;;4923006;29;20801;-80
2023/04/29 11:40:50;;;;;;;28.63;26.00;;;;;;;;;;4926764;29;20438;-76
2023/04/29 11:43:20;;;;;;;30.73;27.73;;;;;;;;;;4932411;29;20479;-80
2023/04/29 11:45:46;;;;;;;29.50;26.47;;;;;;;;;;4926867;29;20519;-79
2023/04/29 11:48:25;;;;;;;32.40;28.20;;;;;;;;;;4932033;29;20919;-80
2023/04/29 11:50:53;;;;;;;30.87;27.77;;;;;;;;;;4925315;29;20527;-80
2023/04/29 11:53:24;;;;;;;30.97;27.80;;;;;;;;;;4928419;29;20442;-79
2023/04/29 11:55:52;;;;;;;31.00;27.87;;;;;;;;;;4930090;29;20446;-80
2023/04/29 11:58:20;;;;;;;30.80;27.80;;;;;;;;;;4926358;29;20450;-79
2023/04/29 12:00:49;;;;;;;30.93;27.50;;;;;;;;;;4924929;29;20636;-81
2023/04/29 12:03:20;;;;;;;34.97;27.70;;;;;;;;;;4928221;29;20588;-80
2023/04/29 12:05:53;;;;;;;32.33;28.87;;;;;;;;;;4924195;29;20455;-79
2023/04/29 12:08:22;;;;;;;30.33;27.33;;;;;;;;;;4928950;29;20435;-78
2023/04/29 12:10:49;;;;;;;31.10;27.90;;;;;;;;;;4925051;29;20435;-79
2023/04/29 12:13:16;;;;;;;31.83;28.63;;;;;;;;;;4929494;29;20435;-80
2023/04/29 12:15:42;;;;;;;30.17;27.30;;;;;;;;;;4924719;29;20439;-80
2023/04/29 12:18:08;;;;;;;32.30;29.30;;;;;;;;;;4926691;29;20821;-80
2023/04/29 12:20:34;;;;;;;30.77;28.07;;;;;;;;;;4924621;29;20890;-80
2023/04/29 12:23:17;;;;;;;31.27;28.03;;;;;;;;;;4915338;29;20466;-80
2023/04/29 12:25:48;;;;;;;31.07;28.13;;;;;;;;;;4923991;29;20452;-80
2023/04/29 12:28:14;;;;;;;31.50;28.10;;;;;;;;;;4925740;29;20427;-80
2023/04/29 12:30:40;;;;;;;29.00;26.23;;;;;;;;;;4922517;29;20659;-79
2023/04/29 12:33:09;;;;;;;29.20;26.37;;;;;;;;;;4918885;29;20432;-79
2023/04/29 12:35:36;;;;;;;30.20;26.90;;;;;;;;;;4923676;29;20849;-79
2023/04/29 12:38:02;;;;;;;27.87;25.30;;;;;;;;;;4927232;29;20497;-79
2023/04/29 12:40:28;;;;;;;28.73;26.00;;;;;;;;;;4919579;29;20451;-79
2023/04/29 12:42:54;;;;;;;26.40;24.07;;;;;;;;;;4917208;29;20530;-79
2023/04/29 12:45:31;;;;;;;25.43;23.17;;;;;;;;;;4921939;29;20490;-80
2023/04/29 12:47:57;;;;;;;25.90;23.43;;;;;;;;;;4920380;29;20466;-79
2023/04/29 12:50:36;;;;;;;27.27;24.53;;;;;;;;;;4922200;29;20462;-80
2023/04/29 12:53:06;;;;;;;27.20;24.70;;;;;;;;;;4924603;29;20424;-79
2023/04/29 12:55:33;;;;;;;26.03;23.53;;;;;;;;;;4935916;29;21290;-81
2023/04/29 12:57:59;;;;;;;26.27;23.77;;;;;;;;;;4944846;29;20434;-80
2023/04/29 13:00:25;;;;;;;24.17;21.57;;;;;;;;;;4924274;29;20447;-79
2023/04/29 13:02:51;;;;;;;19.30;17.70;;;;;;;;;;4917741;29;20809;-79
2023/04/29 13:05:17;;;;;;;23.60;21.10;;;;;;;;;;4929344;29;20577;-79
2023/04/29 13:07:44;;;;;;;19.37;17.70;;;;;;;;;;4930276;29;20527;-80
2023/04/29 13:10:11;;;;;;;18.97;17.37;;;;;;;;;;4925091;29;20491;-79
2023/04/29 13:12:38;;;;;;;19.90;18.23;;;;;;;;;;4928526;29;20447;-79
2023/04/29 13:15:04;;;;;;;18.80;16.80;;;;;;;;;;4927194;29;20555;-79
2023/04/29 13:17:31;;;;;;;20.07;17.97;;;;;;;;;;4936785;29;20449;-81
2023/04/29 13:19:57;;;;;;;18.90;16.90;;;;;;;;;;4928071;29;20458;-79
2023/04/29 13:22:23;;;;;;;31.40;25.23;;;;;;;;;;4927885;29;20462;-79
2023/04/29 13:24:49;;;;;;;18.87;17.17;;;;;;;;;;4923865;29;20447;-78
2023/04/29 13:27:15;;;;;;;19.00;17.27;;;;;;;;;;4925977;29;20435;-78
2023/04/29 13:29:41;;;;;;;18.33;16.70;;;;;;;;;;4927868;29;20542;-79
2023/04/29 13:32:07;;;;;;;17.90;16.40;;;;;;;;;;4916742;29;20454;-78
2023/04/29 13:34:33;;;;;;;19.23;17.50;;;;;;;;;;4929726;29;20492;-77
2023/04/29 13:36:59;;;;;;;18.70;17.00;;;;;;;;;;4922792;29;20602;-79
2023/04/29 13:39:25;;;;;;;17.20;15.80;;;;;;;;;;4927044;29;20983;-79
2023/04/29 13:41:51;;;;;;;17.70;16.27;;;;;;;;;;4925033;29;20478;-79
2023/04/29 13:44:17;;;;;;;14.07;12.93;;;;;;;;;;4921389;29;20439;-79
2023/04/29 13:46:45;;;;;;;14.00;12.93;;;;;;;;;;4924551;29;20989;-79
2023/04/29 13:49:11;;;;;;;12.50;11.50;;;;;;;;;;4927034;29;20812;-78
2023/04/29 13:51:37;;;;;;;11.77;10.77;;;;;;;;;;4926785;29;20450;-79
2023/04/29 13:54:03;;;;;;;14.23;12.53;;;;;;;;;;4927148;29;20444;-79
2023/04/29 13:56:29;;;;;;;13.03;12.03;;;;;;;;;;4918429;29;20455;-78
2023/04/29 13:58:55;;;;;;;16.60;13.13;;;;;;;;;;4901008;29;20450;-80
2023/04/29 14:01:22;;;;;;;13.60;12.30;;;;;;;;;;4922721;29;20446;-80
2023/04/29 14:03:48;;;;;;;11.97;11.00;;;;;;;;;;4928805;28;20455;-79
2023/04/29 14:06:15;;;;;;;16.43;15.03;;;;;;;;;;4932213;29;20430;-79
2023/04/29 14:08:41;;;;;;;13.50;12.30;;;;;;;;;;4929882;29;20427;-79
2023/04/29 14:11:07;;;;;;;14.10;13.00;;;;;;;;;;4919604;29;20652;-78
2023/04/29 14:13:33;;;;;;;12.53;11.30;;;;;;;;;;4919605;29;20933;-79
2023/04/29 14:16:02;;;;;;;13.60;12.40;;;;;;;;;;4925090;29;20459;-77